createdAt,value
2023-02-27T00:00:47.747Z,88.07
2023-02-27T00:03:50.245Z,87.87
2023-02-27T00:06:52.589Z,88.18
2023-02-27T00:09:54.807Z,87.71
2023-02-27T00:12:57.072Z,87.46
2023-02-27T00:15:59.373Z,86.08
2023-02-27T00:19:04.664Z,85.91
2023-02-27T00:22:06.873Z,85.84
2023-02-27T00:25:10.202Z,82.56
2023-02-27T00:28:12.569Z,83.81
2023-02-27T00:31:14.870Z,83.22
2023-02-27T00:34:17.451Z,83.06
2023-02-27T00:37:20.552Z,83.10
2023-02-27T00:40:25.425Z,82.03
2023-02-27T00:43:27.694Z,82.19
2023-02-27T00:46:31.612Z,81.81
2023-02-27T00:49:33.865Z,82.45
2023-02-27T00:52:36.323Z,81.87
2023-02-27T00:55:38.586Z,81.80
2023-02-27T00:58:40.842Z,81.33
2023-02-27T01:01:44.589Z,81.64
2023-02-27T01:04:46.873Z,81.68
2023-02-27T01:07:49.073Z,79.95
2023-02-27T01:10:51.294Z,80.41
2023-02-27T01:13:53.484Z,80.52
2023-02-27T01:16:55.834Z,79.97
2023-02-27T01:19:58.092Z,80.73
2023-02-27T01:23:00.411Z,81.08
2023-02-27T01:26:02.928Z,82.18
2023-02-27T01:29:06.520Z,82.75
2023-02-27T01:32:09.095Z,83.45
2023-02-27T01:35:13.182Z,85.35
2023-02-27T01:38:15.484Z,85.34
2023-02-27T01:41:17.767Z,85.19
2023-02-27T01:44:19.995Z,85.54
2023-02-27T01:47:22.275Z,85.12
2023-02-27T01:50:25.270Z,84.10
2023-02-27T01:53:29.754Z,83.36
2023-02-27T01:56:33.053Z,83.77
2023-02-27T01:59:37.033Z,83.97
2023-02-27T02:02:42.430Z,83.99
2023-02-27T02:05:46.934Z,83.02
2023-02-27T02:08:51.407Z,83.82
2023-02-27T02:11:56.425Z,84.08
2023-02-27T02:14:58.654Z,84.26
2023-02-27T02:18:12.422Z,85.04
2023-02-27T02:21:30.096Z,85.43
2023-02-27T02:24:35.903Z,86.42
2023-02-27T02:27:47.048Z,86.35
2023-02-27T02:31:30.272Z,87.21
2023-02-27T02:35:16.488Z,87.88
2023-02-27T02:38:31.377Z,88.37
2023-02-27T02:41:58.931Z,88.00
2023-02-27T02:45:13.889Z,87.37
2023-02-27T02:48:18.766Z,86.69
2023-02-27T02:51:24.183Z,87.15
2023-02-27T02:54:41.020Z,87.39
2023-02-27T02:57:53.850Z,88.06
2023-02-27T03:00:59.741Z,87.31
2023-02-27T03:04:18.407Z,87.72
2023-02-27T03:07:32.707Z,88.13
2023-02-27T03:10:51.112Z,88.12
2023-02-27T03:13:58.979Z,87.38
2023-02-27T03:17:06.926Z,87.83
2023-02-27T03:20:12.212Z,88.33
2023-02-27T03:23:21.906Z,88.60
2023-02-27T03:26:32.465Z,88.79
2023-02-27T03:29:44.825Z,89.05
2023-02-27T03:33:13.495Z,89.24
2023-02-27T03:36:31.760Z,89.86
2023-02-27T03:39:46.326Z,90.33
2023-02-27T03:43:07.042Z,90.27
2023-02-27T03:46:22.560Z,90.06
2023-02-27T03:49:27.086Z,90.55
2023-02-27T03:52:30.304Z,90.80
2023-02-27T03:55:40.036Z,90.81
2023-02-27T03:58:42.706Z,90.52
2023-02-27T04:01:45.525Z,91.25
2023-02-27T04:04:47.926Z,91.09
2023-02-27T04:08:39.988Z,90.82
2023-02-27T04:11:47.958Z,90.91
2023-02-27T04:15:05.016Z,90.68
2023-02-27T04:18:39.434Z,91.44
2023-02-27T04:22:16.386Z,91.43
2023-02-27T04:25:40.116Z,91.63
2023-02-27T04:28:48.706Z,91.42
2023-02-27T04:32:12.467Z,91.16
2023-02-27T04:35:23.976Z,90.79
2023-02-27T04:38:28.565Z,89.21
2023-02-27T04:41:52.536Z,89.31
2023-02-27T04:45:01.491Z,89.39
2023-02-27T04:48:10.683Z,89.30
2023-02-27T04:51:20.801Z,88.86
2023-02-27T04:54:36.371Z,88.90
2023-02-27T04:57:42.901Z,88.27
2023-02-27T05:00:58.028Z,88.29
2023-02-27T05:04:01.799Z,88.05
2023-02-27T05:07:07.811Z,88.49
2023-02-27T05:10:21.393Z,88.80
2023-02-27T05:13:41.460Z,88.63
2023-02-27T05:16:46.701Z,88.72
2023-02-27T05:19:49.668Z,88.22
2023-02-27T05:23:07.251Z,88.56
2023-02-27T05:26:16.678Z,88.85
2023-02-27T05:29:30.948Z,87.20
2023-02-27T05:32:39.700Z,88.04
2023-02-27T05:35:48.906Z,88.52
2023-02-27T05:38:59.626Z,89.19
2023-02-27T05:42:06.960Z,88.85
2023-02-27T05:45:13.500Z,88.19
2023-02-27T05:48:26.808Z,88.35
2023-02-27T05:51:34.083Z,87.24
2023-02-27T05:54:42.123Z,87.35
2023-02-27T05:57:49.423Z,87.65
2023-02-27T06:01:04.093Z,87.20
2023-02-27T06:04:06.364Z,87.34
2023-02-27T06:07:08.751Z,86.64
2023-02-27T06:10:15.341Z,87.16
2023-02-27T06:13:17.893Z,86.67
2023-02-27T06:16:20.153Z,86.54
2023-02-27T06:19:22.372Z,86.24
2023-02-27T06:22:24.616Z,86.38
2023-02-27T06:25:33.466Z,85.69
2023-02-27T06:28:35.774Z,85.44
2023-02-27T06:31:44.495Z,85.64
2023-02-27T06:34:46.815Z,85.56
2023-02-27T06:37:49.113Z,85.35
2023-02-27T06:40:53.486Z,84.62
2023-02-27T06:43:58.729Z,84.45
2023-02-27T06:47:03.171Z,84.58
2023-02-27T06:50:11.347Z,84.35
2023-02-27T06:53:14.867Z,84.54
2023-02-27T06:56:17.170Z,84.74
2023-02-27T06:59:19.447Z,83.98
2023-02-27T07:02:28.870Z,83.34
2023-02-27T07:05:39.487Z,83.50
2023-02-27T07:09:02.771Z,82.27
2023-02-27T07:12:16.161Z,82.30
2023-02-27T07:15:18.681Z,81.28
2023-02-27T07:18:21.316Z,81.10
2023-02-27T07:21:26.785Z,80.48
2023-02-27T07:24:29.233Z,79.87
2023-02-27T07:27:31.898Z,79.58
2023-02-27T07:30:36.746Z,79.10
2023-02-27T07:33:39.061Z,78.41
2023-02-27T07:36:47.496Z,75.81
2023-02-27T07:39:56.208Z,75.13
2023-02-27T07:42:58.547Z,72.63
2023-02-27T07:46:04.086Z,70.13
2023-02-27T07:49:06.572Z,68.93
2023-02-27T07:52:09.082Z,67.71
2023-02-27T07:55:13.067Z,66.90
2023-02-27T07:58:15.395Z,66.12
2023-02-27T08:01:29.870Z,64.79
2023-02-27T08:04:33.125Z,65.26
2023-02-27T08:07:40.647Z,65.11
2023-02-27T08:10:47.952Z,64.26
2023-02-27T08:14:06.425Z,64.76
2023-02-27T08:17:12.637Z,64.49
2023-02-27T08:20:24.163Z,63.87
2023-02-27T08:23:35.322Z,64.54
2023-02-27T08:26:39.981Z,64.19
2023-02-27T08:29:43.664Z,64.63
2023-02-27T08:32:49.107Z,63.73
2023-02-27T08:35:52.020Z,63.52
2023-02-27T08:39:00.036Z,63.03
2023-02-27T08:42:07.199Z,62.37
2023-02-27T08:45:10.585Z,63.74
2023-02-27T08:48:15.770Z,62.44
2023-02-27T08:51:18.371Z,60.80
2023-02-27T08:54:20.968Z,58.45
2023-02-27T08:57:23.441Z,57.68
2023-02-27T09:00:27.067Z,57.70
2023-02-27T09:03:29.681Z,56.15
2023-02-27T09:06:35.951Z,54.75
2023-02-27T09:09:38.349Z,54.60
2023-02-27T09:12:43.229Z,56.42
2023-02-27T09:15:48.081Z,54.92
2023-02-27T09:18:54.210Z,55.98
2023-02-27T09:21:56.849Z,57.05
2023-02-27T09:24:59.149Z,58.46
2023-02-27T09:28:01.740Z,59.14
2023-02-27T09:31:08.353Z,58.69
2023-02-27T09:34:13.464Z,57.17
2023-02-27T09:37:19.409Z,58.09
2023-02-27T09:40:30.721Z,59.17
2023-02-27T09:43:45.942Z,58.38
2023-02-27T09:46:48.394Z,60.23
2023-02-27T09:50:29.646Z,61.69
2023-02-27T09:53:52.710Z,60.67
2023-02-27T09:57:00.865Z,60.03
2023-02-27T10:00:26.232Z,60.98
2023-02-27T10:04:09.388Z,58.61
2023-02-27T10:07:37.135Z,61.83
2023-02-27T10:11:03.918Z,59.88
2023-02-27T10:15:00.483Z,59.43
2023-02-27T10:18:25.422Z,58.54
2023-02-27T10:21:39.561Z,57.77
2023-02-27T10:24:54.527Z,58.56
2023-02-27T10:28:04.584Z,58.15
2023-02-27T10:31:16.043Z,56.88
2023-02-27T10:34:18.841Z,53.11
2023-02-27T10:37:24.341Z,50.47
2023-02-27T10:40:27.602Z,48.44
2023-02-27T10:43:30.447Z,47.64
2023-02-27T10:46:38.469Z,47.00
2023-02-27T10:49:43.384Z,45.59
2023-02-27T10:52:52.283Z,46.07
2023-02-27T10:56:01.806Z,44.90
2023-02-27T10:59:07.113Z,43.26
2023-02-27T11:02:21.259Z,39.80
2023-02-27T11:05:36.907Z,36.92
2023-02-27T11:08:41.963Z,35.17
2023-02-27T11:11:44.788Z,36.18
2023-02-27T11:15:20.013Z,38.02
2023-02-27T11:18:30.152Z,36.95
2023-02-27T11:21:32.445Z,38.13
2023-02-27T11:24:35.617Z,40.29
2023-02-27T11:27:38.023Z,42.43
2023-02-27T11:30:55.200Z,42.86
2023-02-27T11:34:01.879Z,46.81
2023-02-27T11:37:06.018Z,47.68
2023-02-27T11:40:13.368Z,46.38
2023-02-27T11:43:22.753Z,46.00
2023-02-27T11:46:47.879Z,45.80
2023-02-27T11:50:17.083Z,46.59
2023-02-27T11:53:28.096Z,46.15
2023-02-27T11:56:36.572Z,41.64
2023-02-27T11:59:44.047Z,43.53
2023-02-27T12:03:04.585Z,43.35
2023-02-27T12:06:47.213Z,40.53
2023-02-27T12:10:09.032Z,39.28
2023-02-27T12:13:19.590Z,39.38
2023-02-27T12:16:32.944Z,37.65
2023-02-27T12:20:07.908Z,37.41
2023-02-27T12:23:54.488Z,36.85
2023-02-27T12:27:19.568Z,37.31
2023-02-27T12:30:26.011Z,39.28
2023-02-27T12:33:38.054Z,40.07
2023-02-27T12:36:48.066Z,43.79
2023-02-27T12:39:53.203Z,45.10
2023-02-27T12:43:04.474Z,44.77
2023-02-27T12:46:21.699Z,45.96
2023-02-27T12:49:41.869Z,44.40
2023-02-27T12:53:08.884Z,48.70
2023-02-27T12:56:20.527Z,47.77
2023-02-27T12:59:47.011Z,48.85
2023-02-27T13:02:53.797Z,50.49
2023-02-27T13:06:10.777Z,48.42
2023-02-27T13:09:33.606Z,50.73
2023-02-27T13:12:54.389Z,50.54
2023-02-27T13:16:06.047Z,50.83
2023-02-27T13:19:18.911Z,48.78
2023-02-27T13:22:39.034Z,43.47
2023-02-27T13:25:45.218Z,45.78
2023-02-27T13:28:48.575Z,48.01
2023-02-27T13:32:03.036Z,48.44
2023-02-27T13:35:33.134Z,51.67
2023-02-27T13:38:46.088Z,53.03
2023-02-27T13:41:48.329Z,53.84
2023-02-27T13:44:51.224Z,54.71
2023-02-27T13:47:55.013Z,55.41
2023-02-27T13:50:58.866Z,57.28
2023-02-27T13:54:13.406Z,54.83
2023-02-27T13:57:24.982Z,55.11
2023-02-27T14:00:33.192Z,55.73
2023-02-27T14:03:35.521Z,56.34
2023-02-27T14:06:48.951Z,55.96
2023-02-27T14:10:11.181Z,58.00
2023-02-27T14:13:50.481Z,57.68
2023-02-27T14:16:52.859Z,57.85
2023-02-27T14:19:57.162Z,59.27
2023-02-27T14:23:21.290Z,59.39
2023-02-27T14:26:26.542Z,59.64
2023-02-27T14:29:31.383Z,59.81
2023-02-27T14:32:37.022Z,60.58
2023-02-27T14:35:39.817Z,60.81
2023-02-27T14:38:42.139Z,60.32
2023-02-27T14:41:54.018Z,62.55
2023-02-27T14:44:59.053Z,61.12
2023-02-27T14:48:01.784Z,62.82
2023-02-27T14:51:05.100Z,62.39
2023-02-27T14:54:07.394Z,61.99
2023-02-27T14:57:16.984Z,60.93
2023-02-27T15:00:52.766Z,60.45
2023-02-27T15:03:58.694Z,62.51
2023-02-27T15:07:01.354Z,61.68
2023-02-27T15:10:08.954Z,62.04
2023-02-27T15:13:25.337Z,62.07
2023-02-27T15:16:34.351Z,62.79
2023-02-27T15:19:37.339Z,63.41
2023-02-27T15:22:40.270Z,64.82
2023-02-27T15:25:42.626Z,63.50
2023-02-27T15:28:44.912Z,64.46
2023-02-27T15:31:47.407Z,64.65
2023-02-27T15:34:49.914Z,64.32
2023-02-27T15:37:55.676Z,65.37
2023-02-27T15:41:05.338Z,65.59
2023-02-27T15:44:07.726Z,66.60
2023-02-27T15:47:13.856Z,66.61
2023-02-27T15:50:16.040Z,66.53
2023-02-27T15:53:24.093Z,66.41
2023-02-27T15:56:31.765Z,66.92
2023-02-27T15:59:39.922Z,68.32
2023-02-27T16:02:54.886Z,69.56
2023-02-27T16:05:57.866Z,69.93
2023-02-27T16:09:04.558Z,70.62
2023-02-27T16:12:12.811Z,70.19
2023-02-27T16:15:18.124Z,71.30
2023-02-27T16:18:36.413Z,70.96
2023-02-27T16:21:38.608Z,70.96
2023-02-27T16:24:41.379Z,71.16
2023-02-27T16:27:50.177Z,72.37
2023-02-27T16:30:54.405Z,72.39
2023-02-27T16:34:00.164Z,73.15
2023-02-27T16:37:05.646Z,74.22
2023-02-27T16:40:34.162Z,75.40
2023-02-27T16:43:36.451Z,76.19
2023-02-27T16:46:38.779Z,75.43
2023-02-27T16:49:41.135Z,75.32
2023-02-27T16:52:43.773Z,75.46
2023-02-27T16:55:46.125Z,75.73
2023-02-27T16:58:48.655Z,76.05
2023-02-27T17:01:50.852Z,76.13
2023-02-27T17:04:53.206Z,76.70
2023-02-27T17:07:55.515Z,77.76
2023-02-27T17:10:58.292Z,79.53
2023-02-27T17:14:07.698Z,80.40
2023-02-27T17:17:11.615Z,80.09
2023-02-27T17:20:14.892Z,79.44
2023-02-27T17:23:17.152Z,80.93
2023-02-27T17:26:19.516Z,80.91
2023-02-27T17:29:22.598Z,83.98
2023-02-27T17:32:24.989Z,82.50
2023-02-27T17:35:27.366Z,82.19
2023-02-27T17:38:29.664Z,81.75
2023-02-27T17:41:32.443Z,82.35
2023-02-27T17:44:34.964Z,82.64
2023-02-27T17:47:37.487Z,82.61
2023-02-27T17:50:40.232Z,82.74
2023-02-27T17:53:42.932Z,83.64
2023-02-27T17:56:45.263Z,83.41
2023-02-27T17:59:47.503Z,82.12
2023-02-27T18:02:49.905Z,83.11
2023-02-27T18:05:52.870Z,83.25
2023-02-27T18:08:55.165Z,83.29
2023-02-27T18:11:58.095Z,82.01
2023-02-27T18:15:01.183Z,82.74
2023-02-27T18:18:03.564Z,81.50
2023-02-27T18:21:10.028Z,79.34
2023-02-27T18:24:12.280Z,79.53
2023-02-27T18:27:14.587Z,80.24
2023-02-27T18:30:19.568Z,80.36
2023-02-27T18:33:23.128Z,79.91
2023-02-27T18:36:25.448Z,80.46
2023-02-27T18:39:27.652Z,82.22
2023-02-27T18:42:30.015Z,82.92
2023-02-27T18:45:32.258Z,82.13
2023-02-27T18:48:34.575Z,81.98
2023-02-27T18:51:36.854Z,79.31
2023-02-27T18:54:40.876Z,81.31
2023-02-27T18:57:43.500Z,82.50
2023-02-27T19:00:45.753Z,82.28
2023-02-27T19:03:48.516Z,83.69
2023-02-27T19:06:51.079Z,83.86
2023-02-27T19:09:54.114Z,85.32
2023-02-27T19:12:56.357Z,85.37
2023-02-27T19:16:04.633Z,85.40
2023-02-27T19:19:08.763Z,85.23
2023-02-27T19:22:10.959Z,85.67
2023-02-27T19:25:13.301Z,83.56
2023-02-27T19:28:15.619Z,84.04
2023-02-27T19:31:17.902Z,84.70
2023-02-27T19:34:20.196Z,84.89
2023-02-27T19:37:22.438Z,84.88
2023-02-27T19:40:25.571Z,82.85
2023-02-27T19:43:27.963Z,83.89
2023-02-27T19:46:33.021Z,84.16
2023-02-27T19:49:35.419Z,81.25
2023-02-27T19:52:38.056Z,79.18
2023-02-27T19:55:40.419Z,80.62
2023-02-27T19:58:42.847Z,81.18
2023-02-27T20:01:45.096Z,80.62
2023-02-27T20:04:47.375Z,79.44
2023-02-27T20:07:49.683Z,78.71
2023-02-27T20:10:56.835Z,81.20
2023-02-27T20:13:59.831Z,82.48
2023-02-27T20:17:02.123Z,82.41
2023-02-27T20:20:06.075Z,78.77
2023-02-27T20:23:08.267Z,78.05
2023-02-27T20:26:16.195Z,78.12
2023-02-27T20:29:21.426Z,77.97
2023-02-27T20:32:24.704Z,79.09
2023-02-27T20:35:27.093Z,78.49
2023-02-27T20:38:30.020Z,78.59
2023-02-27T20:41:34.609Z,78.21
2023-02-27T20:44:37.187Z,78.24
2023-02-27T20:47:39.422Z,78.53
2023-02-27T20:50:41.727Z,80.38
2023-02-27T20:53:46.976Z,80.41
2023-02-27T20:56:54.478Z,80.98
2023-02-27T20:59:56.766Z,80.37
2023-02-27T21:03:00.842Z,79.88
2023-02-27T21:06:03.195Z,79.67
2023-02-27T21:09:06.633Z,79.13
2023-02-27T21:12:09.476Z,77.36
2023-02-27T21:15:12.199Z,78.10
2023-02-27T21:18:14.527Z,76.95
2023-02-27T21:21:19.286Z,77.58
2023-02-27T21:24:21.612Z,78.78
2023-02-27T21:27:24.031Z,79.57
2023-02-27T21:30:26.375Z,78.22
2023-02-27T21:33:28.606Z,78.88
2023-02-27T21:36:33.588Z,79.38
2023-02-27T21:39:35.895Z,79.63
2023-02-27T21:42:38.259Z,77.34
2023-02-27T21:45:46.246Z,75.99
2023-02-27T21:48:48.533Z,77.27
2023-02-27T21:51:51.188Z,77.52
2023-02-27T21:54:54.250Z,75.23
2023-02-27T21:57:56.627Z,76.10
2023-02-27T22:01:00.531Z,75.49
2023-02-27T22:04:03.599Z,75.36
2023-02-27T22:07:06.118Z,75.66
2023-02-27T22:10:09.146Z,73.69
2023-02-27T22:13:15.412Z,74.75
2023-02-27T22:16:18.238Z,74.37
2023-02-27T22:19:22.025Z,75.52
2023-02-27T22:22:24.621Z,75.15
2023-02-27T22:25:26.886Z,76.71
2023-02-27T22:28:30.875Z,76.65
2023-02-27T22:31:35.643Z,75.40
2023-02-27T22:34:37.838Z,75.13
2023-02-27T22:37:40.036Z,73.24
2023-02-27T22:40:42.217Z,73.27
2023-02-27T22:43:45.341Z,72.86
2023-02-27T22:46:49.183Z,74.14
2023-02-27T22:49:52.099Z,73.56
2023-02-27T22:52:54.300Z,71.64
2023-02-27T22:55:57.043Z,72.69
2023-02-27T22:58:59.790Z,73.44
2023-02-27T23:02:02.117Z,73.78
2023-02-27T23:05:07.395Z,74.73
2023-02-27T23:08:09.695Z,75.15
2023-02-27T23:11:14.036Z,73.85
2023-02-27T23:14:16.604Z,75.19
2023-02-27T23:17:18.813Z,73.40
2023-02-27T23:20:21.078Z,72.16
2023-02-27T23:23:23.303Z,72.40
2023-02-27T23:26:28.529Z,70.97
2023-02-27T23:29:30.896Z,73.28
2023-02-27T23:32:43.008Z,73.77
2023-02-27T23:35:45.311Z,76.17
2023-02-27T23:38:47.648Z,77.30
2023-02-27T23:41:50.020Z,80.59
2023-02-27T23:45:10.783Z,83.08
2023-02-27T23:48:13.150Z,85.66
2023-02-27T23:51:15.649Z,88.76
2023-02-27T23:54:17.899Z,90.77
2023-02-27T23:57:20.126Z,92.21
